TimeCDT,TemperatureF,Dew PointF,Humidity,Sea Level PressureIn,VisibilityMPH,Wind Direction,Wind SpeedMPH,Gust SpeedMPH,PrecipitationIn,Events,Conditions,WindDirDegrees,DateUTC
1:58 AM,73.6,71.4,93,30.03,10.0,South,2.3,-,N/A,,Clear,170,2014-08-06 06:58:00
2:58 AM,72.5,72.5,100,30.03,10.0,South,2.3,-,N/A,,Clear,170,2014-08-06 07:58:00
3:58 AM,71.6,71.6,100,30.03,10.0,South,3.5,-,N/A,,Clear,190,2014-08-06 08:58:00
4:58 AM,71.4,71.4,100,30.04,10.0,Calm,Calm,-,N/A,,Clear,0,2014-08-06 09:58:00
5:58 AM,72.0,72.0,100,30.05,10.0,Calm,Calm,-,N/A,,Clear,0,2014-08-06 10:58:00
6:58 AM,72.7,72.7,100,30.06,10.0,WSW,2.3,-,N/A,,Clear,240,2014-08-06 11:58:00
7:58 AM,76.3,74.1,93,30.06,10.0,Variable,2.3,-,N/A,,Clear,0,2014-08-06 12:58:00
8:58 AM,80.1,73.2,80,30.08,10.0,West,4.6,-,N/A,,Clear,280,2014-08-06 13:58:00
9:58 AM,84.0,73.6,71,30.08,10.0,Variable,2.3,-,N/A,,Clear,0,2014-08-06 14:58:00
10:58 AM,89.1,71.4,56,30.06,10.0,Variable,3.5,-,N/A,,Clear,0,2014-08-06 15:58:00
11:58 AM,91.4,70.7,51,30.06,9.0,WNW,4.6,-,N/A,,Clear,290,2014-08-06 16:58:00
12:58 PM,93.9,68.5,43,30.04,10.0,WSW,3.5,-,N/A,,Clear,250,2014-08-06 17:58:00
1:58 PM,93.7,68.4,43,30.01,10.0,WNW,5.8,-,N/A,,Partly Cloudy,290,2014-08-06 18:58:00
2:58 PM,95.0,66.6,39,29.99,10.0,WSW,5.8,-,N/A,,Scattered Clouds,250,2014-08-06 19:58:00
3:58 PM,95.5,67.6,40,29.98,10.0,North,6.9,-,N/A,,Partly Cloudy,360,2014-08-06 20:58:00
4:58 PM,95.4,68.9,42,29.96,10.0,NE,6.9,-,N/A,,Scattered Clouds,40,2014-08-06 21:58:00
5:58 PM,92.7,68.2,45,29.96,10.0,NE,5.8,-,N/A,,Clear,40,2014-08-06 22:58:00
6:58 PM,92.3,67.3,44,29.96,10.0,NW,2.3,-,N/A,,Clear,320,2014-08-06 23:58:00
7:58 PM,84.9,73.0,67,29.96,10.0,South,2.3,-,N/A,,Clear,180,2014-08-07 00:58:00
8:58 PM,82.9,73.8,74,29.99,10.0,SSE,3.5,-,N/A,,Clear,160,2014-08-07 01:58:00
9:58 PM,82.2,73.2,74,30.01,10.0,SW,4.6,-,N/A,,Scattered Clouds,220,2014-08-07 02:58:00
10:58 PM,81.1,73.0,76,30.01,10.0,South,2.3,-,N/A,,Partly Cloudy,190,2014-08-07 03:58:00
11:58 PM,79.0,72.1,79,30.01,10.0,South,2.3,-,N/A,,Clear,190,2014-08-07 04:58:00